createdAt,value
2019-02-25T00:00:58.682Z,12.63
2019-02-25T00:02:35.184Z,11.55
2019-02-25T00:04:10.168Z,11.45
2019-02-25T00:05:45.066Z,15.72
2019-02-25T00:07:19.967Z,12.47
2019-02-25T00:08:54.861Z,14.47
2019-02-25T00:10:29.766Z,12.05
2019-02-25T00:12:04.653Z,10.95
2019-02-25T00:13:39.560Z,15.63
2019-02-25T00:15:14.549Z,11.90
2019-02-25T00:16:49.459Z,11.05
2019-02-25T00:18:24.376Z,13.48
2019-02-25T00:19:59.288Z,13.85
2019-02-25T00:21:34.316Z,10.13
2019-02-25T00:23:09.220Z,14.45
2019-02-25T00:24:44.611Z,13.18
2019-02-25T00:26:19.512Z,12.05
2019-02-25T00:27:54.424Z,15.45
2019-02-25T00:29:29.324Z,13.03
2019-02-25T00:31:04.237Z,17.02
2019-02-25T00:32:57.038Z,13.55
2019-02-25T00:34:49.592Z,12.15
2019-02-25T00:36:42.412Z,15.70
2019-02-25T00:38:35.198Z,15.00
2019-02-25T00:40:27.924Z,10.85
2019-02-25T00:42:20.695Z,12.37
2019-02-25T00:44:13.471Z,10.28
2019-02-25T00:46:06.232Z,9.83
2019-02-25T00:47:59.018Z,11.10
2019-02-25T00:51:43.799Z,12.23
2019-02-25T00:53:36.613Z,13.68
2019-02-25T00:55:29.637Z,14.18
2019-02-25T00:57:22.608Z,12.95
2019-02-25T00:59:15.195Z,14.15
2019-02-25T01:01:07.957Z,11.18
2019-02-25T01:03:00.455Z,10.13
2019-02-25T01:04:53.251Z,16.32
2019-02-25T01:08:37.993Z,11.38
2019-02-25T01:10:30.680Z,17.73
2019-02-25T01:12:23.200Z,12.75
2019-02-25T01:15:52.860Z,10.10
2019-02-25T01:17:45.377Z,13.30
2019-02-25T01:19:38.132Z,13.25
2019-02-25T01:21:30.916Z,11.70
2019-02-25T01:23:24.043Z,10.50
2019-02-25T01:25:20.222Z,15.55
2019-02-25T01:27:13.710Z,14.35
2019-02-25T01:29:06.772Z,14.53
2019-02-25T01:30:59.440Z,13.68
2019-02-25T01:34:44.629Z,13.90
2019-02-25T01:36:37.467Z,14.73
2019-02-25T01:38:30.612Z,12.98
2019-02-25T01:40:23.411Z,16.25
2019-02-25T01:42:16.179Z,16.45
2019-02-25T01:44:08.893Z,15.08
2019-02-25T01:46:01.612Z,14.98
2019-02-25T01:47:54.538Z,15.95
2019-02-25T01:49:47.301Z,13.50
2019-02-25T01:53:32.363Z,10.80
2019-02-25T01:55:09.333Z,13.98
2019-02-25T01:56:44.248Z,14.68
2019-02-25T01:58:19.205Z,14.63
2019-02-25T01:59:54.094Z,12.98
2019-02-25T02:01:29.005Z,15.83
2019-02-25T02:03:03.976Z,14.13
2019-02-25T02:04:38.863Z,15.25
2019-02-25T02:06:13.774Z,14.90
2019-02-25T02:07:48.684Z,11.60
2019-02-25T02:09:23.573Z,14.35
2019-02-25T02:10:58.488Z,17.92
2019-02-25T02:12:33.449Z,15.63
2019-02-25T02:14:08.421Z,14.15
2019-02-25T02:15:43.332Z,13.70
2019-02-25T02:17:18.245Z,14.85
2019-02-25T02:18:53.134Z,12.20
2019-02-25T02:20:28.401Z,12.82
2019-02-25T02:22:03.320Z,13.90
2019-02-25T02:23:38.216Z,12.20
2019-02-25T02:25:13.859Z,13.85
2019-02-25T02:26:48.779Z,12.93
2019-02-25T02:28:23.666Z,11.33
2019-02-25T02:29:58.585Z,13.85
2019-02-25T02:31:33.560Z,13.22
2019-02-25T02:33:08.464Z,12.78
2019-02-25T02:34:43.440Z,11.55
2019-02-25T02:36:18.341Z,15.72
2019-02-25T02:37:53.299Z,10.68
2019-02-25T02:39:45.864Z,11.73
2019-02-25T02:42:16.892Z,10.23
2019-02-25T02:44:09.961Z,11.45
2019-02-25T02:46:14.943Z,11.63
2019-02-25T02:48:13.843Z,14.95
2019-02-25T02:50:12.784Z,9.88
2019-02-25T02:52:05.549Z,11.57
2019-02-25T02:53:58.142Z,11.12
2019-02-25T02:55:51.013Z,11.12
2019-02-25T02:57:43.929Z,12.13
2019-02-25T03:01:29.100Z,12.75
2019-02-25T03:03:21.873Z,19.00
2019-02-25T03:07:07.749Z,10.85
2019-02-25T03:09:01.060Z,13.43
2019-02-25T03:10:55.560Z,9.53
2019-02-25T03:14:40.608Z,13.32
2019-02-25T03:18:25.461Z,8.58
2019-02-25T03:20:18.213Z,12.50
2019-02-25T03:22:10.958Z,12.73
2019-02-25T03:25:56.994Z,11.85
2019-02-25T03:27:49.760Z,11.33
2019-02-25T03:29:42.643Z,11.00
2019-02-25T03:31:35.680Z,12.98
2019-02-25T03:33:28.467Z,11.48
2019-02-25T03:35:22.662Z,10.95
2019-02-25T03:37:15.530Z,12.80
2019-02-25T03:38:50.437Z,11.65
2019-02-25T03:40:25.400Z,11.95
2019-02-25T03:42:00.302Z,10.75
2019-02-25T03:43:35.205Z,10.93
2019-02-25T03:45:12.538Z,9.43
2019-02-25T03:46:47.531Z,12.28
2019-02-25T03:48:22.441Z,13.53
2019-02-25T03:49:57.316Z,13.35
2019-02-25T03:51:32.220Z,11.70
2019-02-25T03:53:07.443Z,9.83
2019-02-25T03:54:42.445Z,11.60
2019-02-25T03:56:17.410Z,14.63
2019-02-25T03:57:52.318Z,13.45
2019-02-25T03:59:27.261Z,11.28
2019-02-25T04:01:02.168Z,11.05
2019-02-25T04:02:37.057Z,10.15
2019-02-25T04:04:11.968Z,14.68
2019-02-25T04:05:46.852Z,12.58
2019-02-25T04:07:21.789Z,12.33
2019-02-25T04:08:56.876Z,13.30
2019-02-25T04:10:31.784Z,11.15
2019-02-25T04:12:06.669Z,9.05
2019-02-25T04:13:41.579Z,12.05
2019-02-25T04:15:21.932Z,13.18
2019-02-25T04:16:56.840Z,14.83
2019-02-25T04:18:49.965Z,14.05
2019-02-25T04:20:42.791Z,11.57
2019-02-25T04:24:28.052Z,11.90
2019-02-25T04:26:21.195Z,10.90
2019-02-25T04:28:13.972Z,10.82
2019-02-25T04:30:16.335Z,11.95
2019-02-25T04:32:09.133Z,13.72
2019-02-25T04:35:54.346Z,15.40
2019-02-25T04:37:47.134Z,10.15
2019-02-25T04:39:39.704Z,10.78
2019-02-25T04:41:32.496Z,15.30
2019-02-25T04:45:21.144Z,10.20
2019-02-25T04:47:13.633Z,11.65
2019-02-25T04:49:06.331Z,13.03
2019-02-25T04:50:59.265Z,11.10
2019-02-25T04:52:51.761Z,13.48
2019-02-25T04:54:44.965Z,15.43
2019-02-25T04:58:29.876Z,11.83
2019-02-25T05:00:26.527Z,11.78
2019-02-25T05:02:19.271Z,17.50
2019-02-25T05:06:04.692Z,15.58
2019-02-25T05:07:58.834Z,12.80
2019-02-25T05:09:51.628Z,13.20
2019-02-25T05:11:44.970Z,12.53
2019-02-25T05:13:37.914Z,12.25
2019-02-25T05:15:31.880Z,11.48
2019-02-25T05:17:24.741Z,14.13
2019-02-25T05:18:59.744Z,16.75
2019-02-25T05:20:34.999Z,11.60
2019-02-25T05:22:10.262Z,12.75
2019-02-25T05:23:45.170Z,13.00
2019-02-25T05:25:21.700Z,11.97
2019-02-25T05:26:56.613Z,12.50
2019-02-25T05:28:31.496Z,14.35
2019-02-25T05:30:10.032Z,12.82
2019-02-25T05:31:44.920Z,13.90
2019-02-25T05:33:19.893Z,10.82
2019-02-25T05:34:54.807Z,11.90
2019-02-25T05:36:29.714Z,14.70
2019-02-25T05:38:05.597Z,12.20
2019-02-25T05:39:40.628Z,10.78
2019-02-25T05:41:15.535Z,15.65
2019-02-25T05:42:50.422Z,12.33
2019-02-25T05:44:25.485Z,10.68
2019-02-25T05:46:00.421Z,9.60
2019-02-25T05:47:35.361Z,14.23
2019-02-25T05:49:11.501Z,12.63
2019-02-25T05:50:46.411Z,11.83
2019-02-25T05:52:21.306Z,12.82
2019-02-25T05:53:56.279Z,11.05
2019-02-25T05:55:32.342Z,11.18
2019-02-25T05:57:25.452Z,12.28
2019-02-25T05:59:18.165Z,13.03
2019-02-25T06:01:10.739Z,12.98
2019-02-25T06:03:03.321Z,16.75
2019-02-25T06:04:56.228Z,12.80
2019-02-25T06:06:50.136Z,11.78
2019-02-25T06:08:42.992Z,11.28
2019-02-25T06:10:35.783Z,11.90
2019-02-25T06:12:28.748Z,11.53
2019-02-25T06:14:22.010Z,12.18
2019-02-25T06:16:15.286Z,11.68
2019-02-25T06:20:00.442Z,13.72
2019-02-25T06:21:54.842Z,13.10
2019-02-25T06:23:50.265Z,15.28
2019-02-25T06:25:44.642Z,11.38
2019-02-25T06:27:38.327Z,19.02
2019-02-25T06:29:31.247Z,11.75
2019-02-25T06:31:24.415Z,12.37
2019-02-25T06:33:17.056Z,13.60
2019-02-25T06:37:02.424Z,16.25
2019-02-25T06:38:54.987Z,12.50
2019-02-25T06:40:47.788Z,16.23
2019-02-25T06:42:40.998Z,17.60
2019-02-25T06:44:33.841Z,20.43
2019-02-25T06:46:26.441Z,21.85
2019-02-25T06:48:19.446Z,18.80
2019-02-25T06:50:12.761Z,21.50
2019-02-25T06:52:06.044Z,18.87
2019-02-25T06:53:59.121Z,16.32
2019-02-25T06:55:36.845Z,19.10
2019-02-25T06:57:12.253Z,20.75
2019-02-25T06:58:47.506Z,19.20
2019-02-25T07:00:23.297Z,23.50
2019-02-25T07:01:58.593Z,17.27
2019-02-25T07:03:33.501Z,27.95
2019-02-25T07:05:17.104Z,20.23
2019-02-25T07:06:56.594Z,23.67
2019-02-25T07:08:36.347Z,21.07
2019-02-25T07:10:19.393Z,23.47
2019-02-25T07:13:50.257Z,20.02
2019-02-25T07:15:30.218Z,26.93
2019-02-25T07:17:16.558Z,29.32
2019-02-25T07:18:59.292Z,18.80
2019-02-25T07:20:42.786Z,12.78
2019-02-25T07:22:20.881Z,16.35
2019-02-25T07:24:14.418Z,25.40
2019-02-25T07:25:57.285Z,18.73
2019-02-25T07:29:30.940Z,20.43
2019-02-25T07:31:07.640Z,15.95
2019-02-25T07:32:44.207Z,16.25
2019-02-25T07:34:29.774Z,23.57
2019-02-25T07:36:30.362Z,17.07
2019-02-25T07:38:40.152Z,15.00
2019-02-25T07:40:37.601Z,17.52
2019-02-25T07:42:32.188Z,13.80
2019-02-25T07:44:38.445Z,16.32
2019-02-25T07:46:41.998Z,19.82
2019-02-25T07:48:39.955Z,13.85
2019-02-25T07:50:52.854Z,17.30
2019-02-25T07:52:47.427Z,15.05
2019-02-25T07:54:53.964Z,17.40
2019-02-25T07:56:54.667Z,15.32
2019-02-25T07:58:49.279Z,16.67
2019-02-25T08:00:52.753Z,14.95
2019-02-25T08:02:50.252Z,18.52
2019-02-25T08:04:44.593Z,17.57
2019-02-25T08:06:27.100Z,18.98
2019-02-25T08:08:24.642Z,19.95
2019-02-25T08:10:21.766Z,17.70
2019-02-25T08:12:28.150Z,12.25
2019-02-25T08:14:39.497Z,15.70
2019-02-25T08:16:49.391Z,14.47
2019-02-25T08:19:00.452Z,19.57
2019-02-25T08:21:01.088Z,15.90
2019-02-25T08:23:12.044Z,13.72
2019-02-25T08:25:24.074Z,17.02
2019-02-25T08:27:36.512Z,15.43
2019-02-25T08:29:40.299Z,23.10
2019-02-25T08:31:35.216Z,16.82
2019-02-25T08:33:35.834Z,13.18
2019-02-25T08:35:54.257Z,16.42
2019-02-25T08:37:52.217Z,15.88
2019-02-25T08:39:53.051Z,19.27
2019-02-25T08:42:04.109Z,17.12
2019-02-25T08:44:13.952Z,19.45
2019-02-25T08:46:08.505Z,20.85
2019-02-25T08:48:06.168Z,16.15
2019-02-25T08:49:58.735Z,15.03
2019-02-25T08:53:43.948Z,16.52
2019-02-25T08:55:36.840Z,13.85
2019-02-25T08:57:29.661Z,14.33
2019-02-25T08:59:22.934Z,17.30
2019-02-25T09:01:15.821Z,13.62
2019-02-25T09:03:08.349Z,14.87
2019-02-25T09:05:01.149Z,15.23
2019-02-25T09:08:46.639Z,20.20
2019-02-25T09:10:39.508Z,18.35
2019-02-25T09:12:32.299Z,28.98
2019-02-25T09:14:25.142Z,19.15
2019-02-25T09:16:18.974Z,21.37
2019-02-25T09:18:11.901Z,20.25
2019-02-25T09:20:05.569Z,16.77
2019-02-25T09:21:58.869Z,16.62
2019-02-25T09:23:51.876Z,19.70
2019-02-25T09:25:44.815Z,12.88
2019-02-25T09:27:37.745Z,18.75
2019-02-25T09:29:30.582Z,22.62
2019-02-25T09:31:23.384Z,22.32
2019-02-25T09:33:17.253Z,24.02
2019-02-25T09:37:02.514Z,15.60
2019-02-25T09:38:56.776Z,20.30
2019-02-25T09:40:50.333Z,17.23
2019-02-25T09:42:43.145Z,17.23
2019-02-25T09:44:37.926Z,16.90
2019-02-25T09:46:30.935Z,14.47
2019-02-25T09:48:23.729Z,15.32
2019-02-25T09:50:22.102Z,11.48
2019-02-25T09:52:14.780Z,15.43
2019-02-25T09:55:59.954Z,14.95
2019-02-25T09:57:52.695Z,14.13
2019-02-25T09:59:45.505Z,13.80
2019-02-25T10:01:35.420Z,18.77
2019-02-25T10:03:10.624Z,13.58
2019-02-25T10:04:45.697Z,13.58
2019-02-25T10:06:20.727Z,16.15
2019-02-25T10:07:55.729Z,13.48
2019-02-25T10:09:32.425Z,10.88
2019-02-25T10:11:07.373Z,14.87
2019-02-25T10:12:42.359Z,15.43
2019-02-25T10:14:17.243Z,15.75
2019-02-25T10:15:52.238Z,12.45
2019-02-25T10:17:27.122Z,14.47
2019-02-25T10:19:02.020Z,18.02
2019-02-25T10:20:36.964Z,10.95
2019-02-25T10:22:12.597Z,13.05
2019-02-25T10:23:47.581Z,17.20
2019-02-25T10:25:22.500Z,13.85
2019-02-25T10:26:57.406Z,16.45
2019-02-25T10:28:32.343Z,16.55
2019-02-25T10:30:12.424Z,20.52
2019-02-25T10:31:47.544Z,11.10
2019-02-25T10:33:22.476Z,11.65
2019-02-25T10:34:57.370Z,12.55
2019-02-25T10:36:32.290Z,11.25
2019-02-25T10:38:07.245Z,11.50
2019-02-25T10:39:43.345Z,15.18
2019-02-25T10:41:21.173Z,22.13
2019-02-25T10:42:55.828Z,14.07
2019-02-25T10:44:31.838Z,12.78
2019-02-25T10:46:09.621Z,16.42
2019-02-25T10:47:46.463Z,11.73
2019-02-25T10:49:22.469Z,15.63
2019-02-25T10:50:57.832Z,16.02
2019-02-25T10:52:33.252Z,14.63
2019-02-25T10:54:08.213Z,23.55
2019-02-25T10:56:01.514Z,15.35
2019-02-25T10:57:36.549Z,12.65
2019-02-25T10:59:12.257Z,11.20
2019-02-25T11:00:47.205Z,12.47
2019-02-25T11:02:44.432Z,14.40
2019-02-25T11:04:37.472Z,20.65
2019-02-25T11:10:27.388Z,10.58
2019-02-25T11:12:21.591Z,18.80
2019-02-25T11:14:14.980Z,15.53
2019-02-25T11:16:07.622Z,17.27
2019-02-25T11:18:00.714Z,12.85
2019-02-25T11:19:54.986Z,12.30
2019-02-25T11:21:48.119Z,16.87
2019-02-25T11:23:43.449Z,13.48
2019-02-25T11:25:36.030Z,12.23
2019-02-25T11:29:22.978Z,10.93
2019-02-25T11:33:10.417Z,11.43
2019-02-25T11:35:06.195Z,12.98
2019-02-25T11:36:59.519Z,11.88
2019-02-25T11:38:52.983Z,15.50
2019-02-25T11:42:38.512Z,14.28
2019-02-25T11:44:31.745Z,13.60
2019-02-25T11:46:24.389Z,13.30
2019-02-25T11:48:17.143Z,12.78
2019-02-25T11:50:12.813Z,19.52
2019-02-25T11:52:05.751Z,19.73
2019-02-25T11:53:59.504Z,15.18
2019-02-25T11:55:52.938Z,11.20
2019-02-25T11:57:45.892Z,11.65
2019-02-25T11:59:38.537Z,9.55
2019-02-25T12:01:31.076Z,13.50
2019-02-25T12:03:23.919Z,12.07
2019-02-25T12:05:18.065Z,12.15
2019-02-25T12:07:11.300Z,9.80
2019-02-25T12:09:04.851Z,11.00
2019-02-25T12:10:59.060Z,9.80
2019-02-25T12:12:52.238Z,12.70
2019-02-25T12:16:39.789Z,6.92
2019-02-25T12:18:32.826Z,10.63
2019-02-25T12:20:26.128Z,15.30
2019-02-25T12:22:19.171Z,9.73
2019-02-25T12:23:55.270Z,13.00
2019-02-25T12:25:30.261Z,9.63
2019-02-25T12:27:05.273Z,11.65
2019-02-25T12:28:40.228Z,14.15
2019-02-25T12:30:28.381Z,8.35
2019-02-25T12:32:03.367Z,10.48
2019-02-25T12:33:38.280Z,14.95
2019-02-25T12:35:13.572Z,11.65
2019-02-25T12:36:48.603Z,14.15
2019-02-25T12:38:23.613Z,15.83
2019-02-25T12:39:59.876Z,10.38
2019-02-25T12:41:34.778Z,12.40
2019-02-25T12:43:09.698Z,11.48
2019-02-25T12:44:44.606Z,9.05
2019-02-25T12:46:19.918Z,11.70
2019-02-25T12:47:54.906Z,10.55
2019-02-25T12:49:29.847Z,13.38
2019-02-25T12:51:04.874Z,7.75
2019-02-25T12:52:39.939Z,9.25
2019-02-25T12:54:32.828Z,14.50
2019-02-25T12:58:18.604Z,11.40
2019-02-25T13:00:18.136Z,9.88
2019-02-25T13:02:10.982Z,15.95
2019-02-25T13:05:56.561Z,6.37
2019-02-25T13:07:49.904Z,11.53
2019-02-25T13:09:42.719Z,7.80
2019-02-25T13:11:35.621Z,13.08
2019-02-25T13:13:28.375Z,9.35
2019-02-25T13:15:22.926Z,8.13
2019-02-25T13:17:15.861Z,9.95
2019-02-25T13:21:02.378Z,10.40
2019-02-25T13:22:55.337Z,8.23
2019-02-25T13:26:40.304Z,8.40
2019-02-25T13:28:15.294Z,7.20
2019-02-25T13:30:11.597Z,9.43
2019-02-25T13:32:04.537Z,7.80
2019-02-25T13:33:57.424Z,6.85
2019-02-25T13:35:50.468Z,8.75
2019-02-25T13:37:43.324Z,8.63
2019-02-25T13:39:36.645Z,8.98
2019-02-25T13:41:29.472Z,9.05
2019-02-25T13:43:22.605Z,15.38
2019-02-25T13:45:17.207Z,11.97
2019-02-25T13:47:10.616Z,8.68
2019-02-25T13:49:04.376Z,7.10
2019-02-25T13:52:49.538Z,11.63
2019-02-25T13:54:42.240Z,10.03
2019-02-25T13:56:35.036Z,10.65
2019-02-25T13:58:28.002Z,7.47
2019-02-25T14:00:21.874Z,11.25
2019-02-25T14:02:15.179Z,8.60
2019-02-25T14:06:00.431Z,11.75
2019-02-25T14:07:55.076Z,7.00
2019-02-25T14:09:48.267Z,5.78
2019-02-25T14:11:41.636Z,6.08
2019-02-25T14:13:34.995Z,9.38
2019-02-25T14:15:27.833Z,9.35
2019-02-25T14:17:20.786Z,10.05
2019-02-25T14:21:06.149Z,8.75
2019-02-25T14:23:00.667Z,9.20
2019-02-25T14:24:53.377Z,10.68
2019-02-25T14:26:46.292Z,9.63
2019-02-25T14:28:38.963Z,11.08
2019-02-25T14:30:33.441Z,6.75
2019-02-25T14:32:27.856Z,7.25
2019-02-25T14:34:20.689Z,10.98
2019-02-25T14:36:14.230Z,9.83
2019-02-25T14:38:15.953Z,9.55
2019-02-25T14:40:16.633Z,10.88
2019-02-25T14:42:09.333Z,11.05
2019-02-25T14:44:02.115Z,12.23
2019-02-25T14:45:56.814Z,7.80
2019-02-25T14:47:55.407Z,7.55
2019-02-25T14:49:44.432Z,9.63
2019-02-25T14:51:37.112Z,9.28
2019-02-25T14:53:29.723Z,11.15
2019-02-25T14:55:22.542Z,13.03
2019-02-25T14:57:15.481Z,11.28
2019-02-25T15:01:02.598Z,9.23
2019-02-25T15:02:56.072Z,12.40
2019-02-25T15:04:48.925Z,13.20
2019-02-25T15:06:41.843Z,11.38
2019-02-25T15:08:35.374Z,13.98
2019-02-25T15:10:31.143Z,7.28
2019-02-25T15:12:23.676Z,8.08
2019-02-25T15:14:19.221Z,5.95
2019-02-25T15:16:12.201Z,8.83
2019-02-25T15:18:05.216Z,9.90
2019-02-25T15:19:58.290Z,14.87
2019-02-25T15:21:52.175Z,7.65
2019-02-25T15:23:45.448Z,9.15
2019-02-25T15:25:42.148Z,9.05
2019-02-25T15:27:32.783Z,16.20
2019-02-25T15:29:25.338Z,9.50
2019-02-25T15:31:18.275Z,9.78
2019-02-25T15:33:11.074Z,5.28
2019-02-25T15:35:04.534Z,6.55
2019-02-25T15:36:58.618Z,8.30
2019-02-25T15:38:51.861Z,7.05
2019-02-25T15:42:38.870Z,8.15
2019-02-25T15:44:31.761Z,4.03
2019-02-25T15:46:26.500Z,6.15
2019-02-25T15:48:21.735Z,5.08
2019-02-25T15:50:15.541Z,4.28
2019-02-25T15:52:10.503Z,7.65
2019-02-25T15:54:02.954Z,4.25
2019-02-25T15:55:59.200Z,5.83
2019-02-25T15:57:51.434Z,6.25
2019-02-25T15:59:44.046Z,3.15
2019-02-25T16:01:37.411Z,4.50
2019-02-25T16:03:31.902Z,3.70
2019-02-25T16:05:27.374Z,5.17
2019-02-25T16:07:23.871Z,11.83
2019-02-25T16:09:19.263Z,3.50
2019-02-25T16:11:12.033Z,3.95
2019-02-25T16:13:09.422Z,8.58
2019-02-25T16:15:00.336Z,8.65
2019-02-25T16:16:49.039Z,3.50
2019-02-25T16:18:25.319Z,5.10
2019-02-25T16:20:20.970Z,7.42
2019-02-25T16:22:14.328Z,5.08
2019-02-25T16:26:01.829Z,12.90
2019-02-25T16:27:55.909Z,11.57
2019-02-25T16:29:51.799Z,10.23
2019-02-25T16:31:48.492Z,10.95
2019-02-25T16:33:41.735Z,13.68
2019-02-25T16:35:36.833Z,13.40
2019-02-25T16:37:31.741Z,17.30
2019-02-25T16:39:32.521Z,10.43
2019-02-25T16:41:31.771Z,13.28
2019-02-25T16:43:24.504Z,17.90
2019-02-25T16:45:23.838Z,9.55
2019-02-25T16:47:31.892Z,12.73
2019-02-25T16:49:36.532Z,12.68
2019-02-25T16:51:36.968Z,12.68
2019-02-25T16:53:29.688Z,16.27
2019-02-25T16:55:27.697Z,11.97
2019-02-25T16:57:25.051Z,11.25
2019-02-25T16:59:20.343Z,11.88
2019-02-25T17:01:15.362Z,12.03
2019-02-25T17:03:11.224Z,11.88
2019-02-25T17:05:06.531Z,13.53
2019-02-25T17:07:00.933Z,10.78
2019-02-25T17:08:55.612Z,9.88
2019-02-25T17:10:33.866Z,9.05
2019-02-25T17:12:11.928Z,16.85
2019-02-25T17:13:48.229Z,10.85
2019-02-25T17:15:26.893Z,12.98
2019-02-25T17:17:02.794Z,9.65
2019-02-25T17:18:39.679Z,12.07
2019-02-25T17:20:18.680Z,14.35
2019-02-25T17:21:55.451Z,10.38
2019-02-25T17:23:32.829Z,9.88
2019-02-25T17:25:12.233Z,15.40
2019-02-25T17:27:07.432Z,12.05
2019-02-25T17:29:02.970Z,8.35
2019-02-25T17:30:41.192Z,9.95
2019-02-25T17:32:19.383Z,7.83
2019-02-25T17:33:57.897Z,14.50
2019-02-25T17:35:34.409Z,9.48
2019-02-25T17:37:13.035Z,7.78
2019-02-25T17:38:51.993Z,11.05
2019-02-25T17:40:29.037Z,11.83
2019-02-25T17:42:08.017Z,9.10
2019-02-25T17:43:43.848Z,12.65
2019-02-25T17:45:38.994Z,10.38
2019-02-25T17:47:35.119Z,12.75
2019-02-25T17:49:31.499Z,8.78
2019-02-25T17:51:27.077Z,10.63
2019-02-25T17:53:24.028Z,11.08
2019-02-25T17:55:20.511Z,13.75
2019-02-25T17:57:14.994Z,11.38
2019-02-25T17:59:09.751Z,15.13
2019-02-25T18:01:06.575Z,16.75
2019-02-25T18:03:03.164Z,10.32
2019-02-25T18:04:58.390Z,11.15
2019-02-25T18:06:54.057Z,9.70
2019-02-25T18:08:48.412Z,6.60
2019-02-25T18:10:43.172Z,12.70
2019-02-25T18:12:39.168Z,9.65
2019-02-25T18:14:34.509Z,8.78
2019-02-25T18:16:32.852Z,11.95
2019-02-25T18:18:25.503Z,8.98
2019-02-25T18:20:23.696Z,10.03
2019-02-25T18:22:17.974Z,12.30
2019-02-25T18:24:13.029Z,9.08
2019-02-25T18:26:07.389Z,11.48
2019-02-25T18:28:04.408Z,11.12
2019-02-25T18:29:59.952Z,13.55
2019-02-25T18:31:54.747Z,13.80
2019-02-25T18:33:50.593Z,10.25
2019-02-25T18:35:45.742Z,16.07
2019-02-25T18:37:41.678Z,18.25
2019-02-25T18:39:36.606Z,15.90
2019-02-25T18:41:34.313Z,16.40
2019-02-25T18:43:30.215Z,14.35
2019-02-25T18:45:26.449Z,12.58
2019-02-25T18:47:20.746Z,15.32
2019-02-25T18:49:16.196Z,14.23
2019-02-25T18:51:11.882Z,17.30
2019-02-25T18:53:07.580Z,14.60
2019-02-25T18:55:04.387Z,11.50
2019-02-25T18:56:58.998Z,13.78
2019-02-25T18:59:07.422Z,19.98
2019-02-25T19:00:51.488Z,15.58
2019-02-25T19:02:46.186Z,14.63
2019-02-25T19:04:44.006Z,14.10
2019-02-25T19:06:41.372Z,15.55
2019-02-25T19:08:35.892Z,11.83
2019-02-25T19:10:30.730Z,17.60
2019-02-25T19:12:25.667Z,23.25
2019-02-25T19:14:21.898Z,13.48
2019-02-25T19:16:19.760Z,16.57
2019-02-25T19:18:17.696Z,21.65
2019-02-25T19:20:12.440Z,18.40
2019-02-25T19:22:08.601Z,15.85
2019-02-25T19:24:05.576Z,18.48
2019-02-25T19:25:59.582Z,16.23
2019-02-25T19:27:56.606Z,19.15
2019-02-25T19:29:53.627Z,10.95
2019-02-25T19:31:51.326Z,15.98
2019-02-25T19:33:47.848Z,18.20
2019-02-25T19:35:43.402Z,18.60
2019-02-25T19:37:40.561Z,17.02
2019-02-25T19:39:39.135Z,20.88
2019-02-25T19:41:32.032Z,14.53
2019-02-25T19:43:28.431Z,17.77
2019-02-25T19:45:24.444Z,19.05
2019-02-25T19:47:23.644Z,16.25
2019-02-25T19:49:20.964Z,18.42
2019-02-25T19:51:18.479Z,15.90
2019-02-25T19:53:19.522Z,15.88
2019-02-25T19:55:13.014Z,13.60
2019-02-25T19:57:11.562Z,20.17
2019-02-25T19:59:07.962Z,18.32
2019-02-25T20:01:06.201Z,22.10
2019-02-25T20:03:06.118Z,23.00
2019-02-25T20:05:00.804Z,19.35
2019-02-25T20:07:00.796Z,17.32
2019-02-25T20:08:58.363Z,21.12
2019-02-25T20:10:57.752Z,17.05
2019-02-25T20:12:53.224Z,20.92
2019-02-25T20:14:49.518Z,26.12
2019-02-25T20:16:44.339Z,21.50
2019-02-25T20:18:41.927Z,21.50
2019-02-25T20:20:38.404Z,27.98
2019-02-25T20:22:32.775Z,14.38
2019-02-25T20:24:32.412Z,24.55
2019-02-25T20:26:28.491Z,23.10
2019-02-25T20:28:25.077Z,19.37
2019-02-25T20:30:23.697Z,18.67
2019-02-25T20:32:20.633Z,21.30
2019-02-25T20:34:18.519Z,21.75
2019-02-25T20:36:17.078Z,25.17
2019-02-25T20:38:10.573Z,18.25
2019-02-25T20:39:52.826Z,23.07
2019-02-25T20:41:31.300Z,23.00
2019-02-25T20:43:08.469Z,24.05
2019-02-25T20:44:49.124Z,18.62
2019-02-25T20:46:26.319Z,19.30
2019-02-25T20:48:04.031Z,19.42
2019-02-25T20:49:40.751Z,22.87
2019-02-25T20:51:18.709Z,21.55
2019-02-25T20:52:59.058Z,20.02
2019-02-25T20:54:40.938Z,22.75
2019-02-25T20:56:24.440Z,18.92
2019-02-25T20:58:02.850Z,17.05
2019-02-25T20:59:47.189Z,24.32
2019-02-25T21:01:25.019Z,22.45
2019-02-25T21:03:01.802Z,19.42
2019-02-25T21:04:40.904Z,22.42
2019-02-25T21:06:21.205Z,22.30
2019-02-25T21:07:59.841Z,17.07
2019-02-25T21:09:39.927Z,27.25
2019-02-25T21:11:17.751Z,20.32
2019-02-25T21:12:54.714Z,19.87
2019-02-25T21:14:38.008Z,24.05
2019-02-25T21:16:16.316Z,24.50
2019-02-25T21:17:55.105Z,17.52
2019-02-25T21:19:33.425Z,18.48
2019-02-25T21:21:30.772Z,23.42
2019-02-25T21:23:08.486Z,21.23
2019-02-25T21:24:46.544Z,18.35
2019-02-25T21:26:25.462Z,18.95
2019-02-25T21:28:04.357Z,19.82
2019-02-25T21:29:41.215Z,23.73
2019-02-25T21:31:35.887Z,19.32
2019-02-25T21:33:30.927Z,21.55
2019-02-25T21:35:27.581Z,24.12
2019-02-25T21:37:23.377Z,22.48
2019-02-25T21:39:19.173Z,21.57
2019-02-25T21:41:15.311Z,21.62
2019-02-25T21:43:12.405Z,23.95
2019-02-25T21:45:08.512Z,21.23
2019-02-25T21:47:06.311Z,23.60
2019-02-25T21:49:04.046Z,19.55
2019-02-25T21:51:02.325Z,15.45
2019-02-25T21:52:56.376Z,26.33
2019-02-25T21:54:51.123Z,20.85
2019-02-25T21:56:45.670Z,16.50
2019-02-25T21:58:42.369Z,20.80
2019-02-25T22:00:38.590Z,14.10
2019-02-25T22:02:32.102Z,24.20
2019-02-25T22:04:26.529Z,17.73
2019-02-25T22:06:22.631Z,19.95
2019-02-25T22:08:20.114Z,23.15
2019-02-25T22:10:19.155Z,20.88
2019-02-25T22:12:14.449Z,15.40
2019-02-25T22:14:12.290Z,13.60
2019-02-25T22:16:07.922Z,16.60
2019-02-25T22:18:03.798Z,11.75
2019-02-25T22:19:57.845Z,17.62
2019-02-25T22:21:55.658Z,13.22
2019-02-25T22:23:49.467Z,14.50
2019-02-25T22:25:45.356Z,16.30
2019-02-25T22:27:41.191Z,14.28
2019-02-25T22:29:36.950Z,12.68
2019-02-25T22:31:32.979Z,11.15
2019-02-25T22:33:28.017Z,16.37
2019-02-25T22:35:23.082Z,10.80
2019-02-25T22:37:19.357Z,12.60
2019-02-25T22:39:13.291Z,14.78
2019-02-25T22:41:07.561Z,17.57
2019-02-25T22:43:02.032Z,17.85
2019-02-25T22:44:56.574Z,16.15
2019-02-25T22:46:51.077Z,24.12
2019-02-25T22:48:47.298Z,20.68
2019-02-25T22:50:42.755Z,21.90
2019-02-25T22:52:37.781Z,16.55
2019-02-25T22:54:32.411Z,17.48
2019-02-25T22:56:28.064Z,25.55
2019-02-25T22:58:22.264Z,17.73
2019-02-25T23:00:45.191Z,20.75
2019-02-25T23:02:43.099Z,26.40
2019-02-25T23:04:34.375Z,19.70
2019-02-25T23:06:27.707Z,20.50
2019-02-25T23:08:20.977Z,19.77
2019-02-25T23:10:17.406Z,18.07
2019-02-25T23:12:09.677Z,22.85
2019-02-25T23:14:03.847Z,16.00
2019-02-25T23:15:56.693Z,23.57
2019-02-25T23:17:49.497Z,17.73
2019-02-25T23:19:43.175Z,23.20
2019-02-25T23:21:38.355Z,16.23
2019-02-25T23:23:33.485Z,21.75
2019-02-25T23:25:26.017Z,21.82
2019-02-25T23:27:18.946Z,20.27
2019-02-25T23:29:12.253Z,16.52
2019-02-25T23:31:05.307Z,19.17
2019-02-25T23:32:58.049Z,22.32
2019-02-25T23:34:52.853Z,20.95
2019-02-25T23:36:47.037Z,22.75
2019-02-25T23:38:39.709Z,17.05
2019-02-25T23:40:35.373Z,20.75
2019-02-25T23:42:27.164Z,23.15
2019-02-25T23:44:20.353Z,16.60
2019-02-25T23:46:14.692Z,19.27
2019-02-25T23:48:08.947Z,19.85
2019-02-25T23:50:04.169Z,17.42
2019-02-25T23:51:56.288Z,21.68
2019-02-25T23:53:50.764Z,19.20
2019-02-25T23:55:47.151Z,18.67
2019-02-25T23:57:38.115Z,20.02
2019-02-25T23:59:30.925Z,12.75
